createdAt,value
2023-10-11T00:00:23.650Z,3.75
2023-10-11T00:03:25.113Z,3.35
2023-10-11T00:06:26.566Z,3.57
2023-10-11T00:09:27.918Z,3.33
2023-10-11T00:12:29.245Z,3.60
2023-10-11T00:15:30.585Z,3.28
2023-10-11T00:18:32.079Z,3.35
2023-10-11T00:21:33.675Z,3.33
2023-10-11T00:24:35.053Z,2.95
2023-10-11T00:27:36.371Z,3.20
2023-10-11T00:30:37.760Z,3.17
2023-10-11T00:33:39.912Z,3.22
2023-10-11T00:36:41.628Z,3.40
2023-10-11T00:39:42.961Z,3.08
2023-10-11T00:42:44.311Z,4.38
2023-10-11T00:45:45.658Z,3.55
2023-10-11T00:48:47.023Z,3.33
2023-10-11T00:51:48.567Z,2.70
2023-10-11T00:54:49.938Z,2.60
2023-10-11T00:57:51.276Z,3.30
2023-10-11T01:00:52.610Z,2.83
2023-10-11T01:03:54.163Z,2.65
2023-10-11T01:06:55.647Z,2.87
2023-10-11T01:09:56.989Z,3.30
2023-10-11T01:12:58.328Z,3.22
2023-10-11T01:15:59.708Z,2.72
2023-10-11T01:19:01.073Z,3.72
2023-10-11T01:22:02.409Z,2.90
2023-10-11T01:25:03.803Z,3.15
2023-10-11T01:28:05.122Z,2.75
2023-10-11T01:31:06.452Z,2.80
2023-10-11T01:34:07.957Z,3.30
2023-10-11T01:37:09.448Z,3.10
2023-10-11T01:40:10.832Z,2.80
2023-10-11T01:43:12.170Z,2.83
2023-10-11T01:46:13.532Z,3.15
2023-10-11T01:49:14.962Z,2.88
2023-10-11T01:52:16.354Z,2.40
2023-10-11T01:55:17.718Z,3.30
2023-10-11T01:58:19.052Z,2.72
2023-10-11T02:01:20.465Z,2.90
2023-10-11T02:04:21.841Z,2.38
2023-10-11T02:07:23.202Z,2.90
2023-10-11T02:10:24.531Z,2.95
2023-10-11T02:13:25.885Z,3.28
2023-10-11T02:16:27.226Z,2.90
2023-10-11T02:19:28.583Z,2.78
2023-10-11T02:22:29.957Z,2.90
2023-10-11T02:25:31.290Z,2.45
2023-10-11T02:28:32.622Z,3.05
2023-10-11T02:31:33.981Z,2.75
2023-10-11T02:34:35.350Z,2.97
2023-10-11T02:37:36.695Z,3.20
2023-10-11T02:40:38.039Z,2.95
2023-10-11T02:43:41.231Z,2.92
2023-10-11T02:46:43.002Z,2.80
2023-10-11T02:49:44.343Z,2.90
2023-10-11T02:52:45.674Z,2.50
2023-10-11T02:55:47.010Z,2.70
2023-10-11T02:58:48.365Z,2.83
2023-10-11T03:01:49.899Z,2.97
2023-10-11T03:04:51.235Z,2.80
2023-10-11T03:07:52.566Z,2.77
2023-10-11T03:10:53.914Z,2.35
2023-10-11T03:13:55.256Z,2.75
2023-10-11T03:16:56.630Z,2.58
2023-10-11T03:19:57.977Z,2.80
2023-10-11T03:22:59.319Z,3.40
2023-10-11T03:26:00.674Z,3.13
2023-10-11T03:29:02.042Z,2.92
2023-10-11T03:32:03.377Z,2.45
2023-10-11T03:35:04.727Z,3.00
2023-10-11T03:38:06.069Z,3.03
2023-10-11T03:41:07.420Z,2.47
2023-10-11T03:44:08.770Z,3.35
2023-10-11T03:47:10.450Z,2.85
2023-10-11T03:50:11.903Z,3.17
2023-10-11T03:53:13.258Z,2.60
2023-10-11T03:56:14.612Z,2.85
2023-10-11T03:59:16.085Z,3.38
2023-10-11T04:02:17.528Z,2.22
2023-10-11T04:05:18.879Z,2.58
2023-10-11T04:08:20.236Z,2.87
2023-10-11T04:11:21.571Z,2.90
2023-10-11T04:14:22.903Z,2.65
2023-10-11T04:17:24.297Z,2.65
2023-10-11T04:20:25.684Z,2.83
2023-10-11T04:23:27.043Z,2.50
2023-10-11T04:26:28.371Z,3.15
2023-10-11T04:29:29.706Z,2.60
2023-10-11T04:32:31.071Z,2.33
2023-10-11T04:35:32.409Z,2.40
2023-10-11T04:38:33.743Z,2.90
2023-10-11T04:41:35.099Z,3.00
2023-10-11T04:44:36.467Z,3.67
2023-10-11T04:47:37.906Z,2.00
2023-10-11T04:50:39.312Z,2.58
2023-10-11T04:53:40.674Z,2.10
2023-10-11T04:56:42.036Z,2.80
2023-10-11T04:59:43.425Z,3.33
2023-10-11T05:02:44.895Z,2.92
2023-10-11T05:05:46.354Z,3.17
2023-10-11T05:08:50.244Z,2.53
2023-10-11T05:11:52.032Z,2.40
2023-10-11T05:14:53.419Z,2.88
2023-10-11T05:17:54.893Z,2.90
2023-10-11T05:20:56.321Z,2.88
2023-10-11T05:23:57.729Z,2.97
2023-10-11T05:26:59.088Z,3.05
2023-10-11T05:30:00.584Z,3.00
2023-10-11T05:33:02.050Z,2.50
2023-10-11T05:36:03.515Z,2.95
2023-10-11T05:39:04.965Z,2.47
2023-10-11T05:42:06.436Z,2.60
2023-10-11T05:45:07.848Z,3.30
2023-10-11T05:48:09.321Z,2.53
2023-10-11T05:51:10.848Z,3.22
2023-10-11T05:54:12.344Z,6.33
2023-10-11T05:57:13.790Z,6.50
2023-10-11T06:00:15.266Z,6.82
2023-10-11T06:03:16.723Z,6.07
2023-10-11T06:06:18.188Z,4.93
2023-10-11T06:09:20.134Z,4.83
2023-10-11T06:12:21.786Z,4.80
2023-10-11T06:15:23.224Z,5.22
2023-10-11T06:18:24.712Z,3.63
2023-10-11T06:21:26.152Z,4.45
2023-10-11T06:24:27.576Z,4.70
2023-10-11T06:27:28.973Z,4.55
2023-10-11T06:30:30.404Z,4.30
2023-10-11T06:33:31.927Z,4.65
2023-10-11T06:36:33.349Z,3.88
2023-10-11T06:39:34.751Z,3.50
2023-10-11T06:42:36.147Z,4.68
2023-10-11T06:45:37.507Z,4.57
2023-10-11T06:48:38.908Z,4.70
2023-10-11T06:51:40.312Z,4.10
2023-10-11T06:54:41.630Z,4.33
2023-10-11T06:57:43.013Z,4.38
2023-10-11T07:00:44.342Z,3.85
2023-10-11T07:03:48.403Z,4.35
2023-10-11T07:06:50.230Z,4.75
2023-10-11T07:09:51.588Z,4.07
2023-10-11T07:12:52.967Z,4.60
2023-10-11T07:15:54.306Z,4.75
2023-10-11T07:18:56.188Z,5.07
2023-10-11T07:21:57.607Z,4.43
2023-10-11T07:24:59.089Z,4.13
2023-10-11T07:28:00.419Z,5.78
2023-10-11T07:31:01.789Z,4.57
2023-10-11T07:34:03.209Z,4.35
2023-10-11T07:37:04.645Z,5.05
2023-10-11T07:40:05.979Z,3.57
2023-10-11T07:43:07.333Z,3.97
2023-10-11T07:46:08.711Z,4.22
2023-10-11T07:49:10.574Z,4.72
2023-10-11T07:52:11.966Z,5.03
2023-10-11T07:55:14.026Z,4.53
2023-10-11T07:58:23.618Z,4.90
2023-10-11T08:01:25.031Z,6.05
2023-10-11T08:04:26.498Z,3.90
2023-10-11T08:07:27.908Z,4.55
2023-10-11T08:10:29.287Z,4.93
2023-10-11T08:13:30.628Z,4.60
2023-10-11T08:16:31.989Z,3.75
2023-10-11T08:19:33.347Z,4.40
2023-10-11T08:22:34.681Z,4.50
2023-10-11T08:25:36.028Z,4.10
2023-10-11T08:28:37.387Z,4.10
2023-10-11T08:31:38.957Z,5.22
2023-10-11T08:34:40.397Z,4.47
2023-10-11T08:37:41.785Z,5.35
2023-10-11T08:40:43.154Z,4.43
2023-10-11T08:43:44.532Z,4.15
2023-10-11T08:46:45.888Z,4.03
2023-10-11T08:49:47.226Z,3.70
2023-10-11T08:52:48.593Z,4.18
2023-10-11T08:55:49.936Z,4.37
2023-10-11T08:58:51.375Z,4.28
2023-10-11T09:01:52.741Z,4.78
2023-10-11T09:04:54.094Z,4.10
2023-10-11T09:07:55.745Z,4.18
2023-10-11T09:10:57.092Z,4.63
2023-10-11T09:14:01.593Z,4.00
2023-10-11T09:17:02.923Z,4.00
2023-10-11T09:20:04.282Z,4.40
2023-10-11T09:23:05.625Z,4.45
2023-10-11T09:26:06.966Z,3.70
2023-10-11T09:29:08.332Z,3.80
2023-10-11T09:32:09.680Z,4.10
2023-10-11T09:35:11.052Z,4.57
2023-10-11T09:38:12.396Z,4.05
2023-10-11T09:41:13.722Z,3.47
2023-10-11T09:44:15.059Z,3.50
2023-10-11T09:47:16.406Z,3.90
2023-10-11T09:50:17.744Z,3.65
2023-10-11T09:53:19.123Z,3.55
2023-10-11T09:56:20.473Z,3.17
2023-10-11T09:59:21.811Z,4.10
2023-10-11T10:02:23.190Z,3.95
2023-10-11T10:05:24.777Z,3.13
2023-10-11T10:08:28.662Z,3.78
2023-10-11T10:11:29.995Z,3.93
2023-10-11T10:14:31.346Z,4.13
2023-10-11T10:17:32.738Z,3.75
2023-10-11T10:20:34.095Z,3.75
2023-10-11T10:23:35.461Z,3.47
2023-10-11T10:26:36.796Z,3.37
2023-10-11T10:29:38.152Z,3.40
2023-10-11T10:32:42.365Z,4.15
2023-10-11T10:35:43.705Z,3.50
2023-10-11T10:38:45.092Z,3.88
2023-10-11T10:41:46.432Z,3.67
2023-10-11T10:44:47.773Z,4.13
2023-10-11T10:47:49.182Z,3.60
2023-10-11T10:50:50.582Z,3.20
2023-10-11T10:53:52.282Z,3.55
2023-10-11T10:56:53.941Z,3.27
2023-10-11T10:59:55.355Z,4.00
2023-10-11T11:02:56.898Z,5.40
2023-10-11T11:05:58.322Z,4.63
2023-10-11T11:09:00.145Z,4.82
2023-10-11T11:12:01.604Z,4.03
2023-10-11T11:15:03.036Z,4.00
2023-10-11T11:18:04.484Z,4.03
2023-10-11T11:21:05.950Z,4.13
2023-10-11T11:24:07.456Z,3.60
2023-10-11T11:27:08.840Z,4.00
2023-10-11T11:30:10.265Z,4.07
2023-10-11T11:33:11.760Z,4.05
2023-10-11T11:36:13.184Z,4.05
2023-10-11T11:39:14.614Z,3.75
2023-10-11T11:42:16.045Z,4.57
2023-10-11T11:45:17.452Z,4.28
2023-10-11T11:48:18.874Z,3.60
2023-10-11T11:51:20.284Z,3.10
2023-10-11T11:54:21.813Z,3.47
2023-10-11T11:57:23.368Z,3.70
2023-10-11T12:00:24.812Z,3.40
2023-10-11T12:03:26.383Z,3.05
2023-10-11T12:06:28.210Z,2.88
2023-10-11T12:09:29.689Z,3.30
2023-10-11T12:12:31.127Z,3.67
2023-10-11T12:15:32.619Z,3.90
2023-10-11T12:18:34.235Z,3.42
2023-10-11T12:21:35.659Z,3.85
2023-10-11T12:24:37.359Z,3.17
2023-10-11T12:27:39.010Z,3.00
2023-10-11T12:30:40.437Z,3.90
2023-10-11T12:33:41.923Z,3.92
2023-10-11T12:36:43.448Z,3.55
2023-10-11T12:39:44.853Z,4.97
2023-10-11T12:42:46.379Z,3.40
2023-10-11T12:45:48.164Z,2.90
2023-10-11T12:48:49.549Z,3.47
2023-10-11T12:51:50.924Z,3.40
2023-10-11T12:54:52.281Z,3.50
2023-10-11T12:57:53.660Z,3.30
2023-10-11T13:00:55.320Z,3.00
2023-10-11T13:03:56.983Z,3.50
2023-10-11T13:06:58.381Z,4.07
2023-10-11T13:09:59.757Z,3.30
2023-10-11T13:13:01.156Z,4.30
2023-10-11T13:16:02.557Z,4.55
2023-10-11T13:19:03.938Z,4.10
2023-10-11T13:22:05.281Z,4.47
2023-10-11T13:25:06.628Z,4.30
2023-10-11T13:28:07.997Z,3.23
2023-10-11T13:31:09.412Z,3.70
2023-10-11T13:34:10.779Z,5.20
2023-10-11T13:37:12.130Z,3.45
2023-10-11T13:40:13.475Z,3.85
2023-10-11T13:43:14.876Z,4.53
2023-10-11T13:46:16.424Z,11.48
2023-10-11T13:49:17.874Z,6.05
2023-10-11T13:52:20.451Z,5.60
2023-10-11T13:55:21.826Z,4.82
2023-10-11T13:58:23.258Z,4.80
2023-10-11T14:01:24.605Z,4.57
2023-10-11T14:04:26.323Z,4.65
2023-10-11T14:07:27.815Z,4.35
2023-10-11T14:10:29.528Z,5.03
2023-10-11T14:13:31.050Z,3.97
2023-10-11T14:16:32.470Z,4.93
2023-10-11T14:19:33.904Z,4.63
2023-10-11T14:22:35.257Z,4.28
2023-10-11T14:25:36.591Z,3.92
2023-10-11T14:28:37.936Z,3.47
2023-10-11T14:31:39.334Z,4.10
2023-10-11T14:34:40.710Z,4.07
2023-10-11T14:37:42.045Z,4.05
2023-10-11T14:40:43.405Z,4.57
2023-10-11T14:43:44.763Z,3.80
2023-10-11T14:46:46.282Z,4.60
2023-10-11T14:49:47.767Z,4.35
2023-10-11T14:52:49.140Z,4.88
2023-10-11T14:55:50.484Z,4.28
2023-10-11T14:58:51.843Z,3.83
2023-10-11T15:01:53.226Z,4.53
2023-10-11T15:04:54.681Z,3.85
2023-10-11T15:07:56.078Z,3.95
2023-10-11T15:10:57.467Z,3.88
2023-10-11T15:13:58.847Z,3.87
2023-10-11T15:17:00.178Z,3.50
2023-10-11T15:20:01.561Z,3.85
2023-10-11T15:23:02.997Z,4.32
2023-10-11T15:26:04.781Z,3.97
2023-10-11T15:29:06.423Z,4.23
2023-10-11T15:32:07.762Z,4.25
2023-10-11T15:35:09.119Z,3.88
2023-10-11T15:38:10.493Z,4.30
2023-10-11T15:41:14.631Z,4.07
2023-10-11T15:44:15.977Z,3.57
2023-10-11T15:47:17.366Z,3.75
2023-10-11T15:50:18.716Z,4.50
2023-10-11T15:53:20.062Z,4.03
2023-10-11T15:56:21.418Z,3.97
2023-10-11T15:59:22.788Z,5.13
2023-10-11T16:02:24.190Z,4.60
2023-10-11T16:05:25.596Z,4.45
2023-10-11T16:08:26.931Z,4.80
2023-10-11T16:11:28.279Z,4.47
2023-10-11T16:14:29.866Z,5.43
2023-10-11T16:17:31.392Z,5.20
2023-10-11T16:20:32.746Z,4.78
2023-10-11T16:23:34.079Z,4.40
2023-10-11T16:26:36.943Z,4.10
2023-10-11T16:29:39.110Z,4.37
2023-10-11T16:32:40.488Z,4.05
2023-10-11T16:35:41.916Z,3.88
2023-10-11T16:38:43.237Z,3.70
2023-10-11T16:41:44.591Z,4.30
2023-10-11T16:44:45.960Z,4.37
2023-10-11T16:47:47.444Z,4.88
2023-10-11T16:50:48.858Z,5.32
2023-10-11T16:53:50.237Z,5.68
2023-10-11T16:56:52.072Z,5.20
2023-10-11T16:59:53.382Z,5.27
2023-10-11T17:02:54.785Z,5.53
2023-10-11T17:05:56.174Z,4.95
2023-10-11T17:08:57.577Z,6.00
2023-10-11T17:11:58.945Z,6.85
2023-10-11T17:15:00.291Z,7.33
2023-10-11T17:18:01.719Z,8.75
2023-10-11T17:21:03.078Z,9.05
2023-10-11T17:24:04.435Z,8.35
2023-10-11T17:27:05.979Z,9.05
2023-10-11T17:30:07.541Z,8.30
2023-10-11T17:33:09.126Z,9.80
2023-10-11T17:36:10.729Z,11.43
2023-10-11T17:39:12.209Z,9.50
2023-10-11T17:42:13.585Z,11.07
2023-10-11T17:45:15.574Z,10.17
2023-10-11T17:48:17.066Z,10.73
2023-10-11T17:51:18.957Z,11.65
2023-10-11T17:54:20.740Z,11.38
2023-10-11T17:57:22.735Z,13.18
2023-10-11T18:00:24.646Z,11.37
2023-10-11T18:03:26.528Z,11.65
2023-10-11T18:06:28.070Z,11.45
2023-10-11T18:09:29.575Z,12.07
2023-10-11T18:12:31.680Z,12.50
2023-10-11T18:15:33.650Z,11.77
2023-10-11T18:18:35.873Z,11.65
2023-10-11T18:21:38.109Z,13.35
2023-10-11T18:24:40.185Z,12.30
2023-10-11T18:27:41.686Z,13.10
2023-10-11T18:30:43.730Z,12.37
2023-10-11T18:33:45.988Z,13.65
2023-10-11T18:36:48.212Z,12.90
2023-10-11T18:39:50.285Z,12.60
2023-10-11T18:42:55.222Z,13.30
2023-10-11T18:45:57.433Z,12.33
2023-10-11T18:48:59.574Z,11.95
2023-10-11T18:52:01.685Z,13.68
2023-10-11T18:55:03.681Z,13.13
2023-10-11T18:58:05.674Z,12.43
2023-10-11T19:01:08.176Z,13.43
2023-10-11T19:04:10.523Z,12.77
2023-10-11T19:07:12.676Z,12.55
2023-10-11T19:10:14.174Z,13.55
2023-10-11T19:13:16.042Z,13.85
2023-10-11T19:16:24.971Z,13.50
2023-10-11T19:19:27.189Z,13.68
2023-10-11T19:22:28.971Z,13.70
2023-10-11T19:25:30.473Z,13.30
2023-10-11T19:28:31.883Z,14.45
2023-10-11T19:31:33.693Z,13.47
2023-10-11T19:34:35.128Z,13.32
2023-10-11T19:37:36.499Z,12.55
2023-10-11T19:40:38.179Z,13.20
2023-10-11T19:43:39.581Z,12.68
2023-10-11T19:46:40.972Z,12.33
2023-10-11T19:49:42.350Z,12.93
2023-10-11T19:52:43.707Z,12.15
2023-10-11T19:55:45.044Z,11.63
2023-10-11T19:58:46.398Z,11.60
2023-10-11T20:01:47.817Z,10.87
2023-10-11T20:04:49.328Z,10.20
2023-10-11T20:07:50.708Z,10.85
2023-10-11T20:10:52.152Z,11.63
2023-10-11T20:13:53.628Z,10.65
2023-10-11T20:16:54.969Z,9.93
2023-10-11T20:19:56.333Z,10.07
2023-10-11T20:22:57.670Z,10.05
2023-10-11T20:25:59.123Z,9.25
2023-10-11T20:29:00.567Z,9.43
2023-10-11T20:32:02.031Z,10.37
2023-10-11T20:35:03.393Z,8.93
2023-10-11T20:38:04.762Z,9.57
2023-10-11T20:41:06.141Z,8.85
2023-10-11T20:44:07.490Z,9.07
2023-10-11T20:47:08.860Z,8.40
2023-10-11T20:50:10.227Z,8.80
2023-10-11T20:53:11.585Z,9.00
2023-10-11T20:56:12.918Z,8.15
2023-10-11T20:59:14.271Z,8.18
2023-10-11T21:02:15.648Z,8.33
2023-10-11T21:05:17.010Z,7.70
2023-10-11T21:08:18.360Z,8.70
2023-10-11T21:11:19.711Z,8.15
2023-10-11T21:14:21.068Z,8.07
2023-10-11T21:17:22.475Z,7.67
2023-10-11T21:20:23.829Z,7.85
2023-10-11T21:23:25.181Z,7.95
2023-10-11T21:26:26.543Z,7.40
2023-10-11T21:29:27.891Z,7.50
2023-10-11T21:32:29.218Z,6.90
2023-10-11T21:35:30.606Z,7.00
2023-10-11T21:38:31.962Z,6.85
2023-10-11T21:41:33.322Z,6.93
2023-10-11T21:44:34.676Z,7.15
2023-10-11T21:47:36.012Z,6.47
2023-10-11T21:50:37.373Z,6.60
2023-10-11T21:53:38.734Z,6.43
2023-10-11T21:56:40.085Z,7.00
2023-10-11T21:59:41.414Z,7.03
2023-10-11T22:02:42.863Z,6.87
2023-10-11T22:05:44.279Z,6.00
2023-10-11T22:08:45.639Z,6.40
2023-10-11T22:11:46.981Z,5.95
2023-10-11T22:14:48.303Z,6.10
2023-10-11T22:17:49.715Z,6.37
2023-10-11T22:20:51.630Z,6.07
2023-10-11T22:23:53.263Z,5.68
2023-10-11T22:26:54.595Z,6.18
2023-10-11T22:29:55.922Z,5.60
2023-10-11T22:32:57.313Z,6.30
2023-10-11T22:35:58.668Z,6.88
2023-10-11T22:39:00.011Z,6.10
2023-10-11T22:42:01.395Z,6.57
2023-10-11T22:45:02.792Z,5.75
2023-10-11T22:48:04.171Z,6.23
2023-10-11T22:51:05.536Z,6.53
2023-10-11T22:54:06.852Z,6.03
2023-10-11T22:57:08.201Z,5.97
2023-10-11T23:00:09.542Z,5.47
2023-10-11T23:03:11.015Z,5.63
2023-10-11T23:06:12.422Z,6.00
2023-10-11T23:09:13.763Z,6.55
2023-10-11T23:12:15.285Z,6.00
2023-10-11T23:15:16.723Z,6.60
2023-10-11T23:18:18.109Z,5.70
2023-10-11T23:21:19.477Z,5.95
2023-10-11T23:24:21.080Z,6.55
2023-10-11T23:27:22.643Z,6.18
2023-10-11T23:30:24.097Z,5.50
2023-10-11T23:33:25.544Z,6.60
2023-10-11T23:36:27.039Z,6.28
2023-10-11T23:39:28.404Z,6.07
2023-10-11T23:42:29.768Z,6.10
2023-10-11T23:45:31.176Z,6.50
2023-10-11T23:48:32.577Z,7.17
2023-10-11T23:51:33.989Z,5.72
2023-10-11T23:54:35.388Z,6.20
2023-10-11T23:57:36.851Z,6.20
